METAR Data
IDs: Format: Raw Decoded Include TAF

Data at: 0841 UTC 25 Apr 2019

KTCS 250753Z AUTO 26003KT 10SM 14/04 A3000 RMK AO2 SLP095 T01440044 $
KTCS 250653Z AUTO 25007KT 10SM CLR 14/06 A3001 RMK AO2 SLP098 T01440056 402330072
KTCS 250553Z AUTO 29008KT 10SM FEW110 15/06 A3000 RMK AO2 SLP100 T01500061 10222 20150 50004
KTCS 250453Z AUTO 27006KT 10SM BKN110 16/06 A3001 RMK AO2 SLP103 T01560061
KTCS 250353Z AUTO 30003KT 10SM CLR 17/06 A3000 RMK AO2 SLP102 T01670056
KTCS 250253Z AUTO 26004KT 10SM CLR 19/04 A2999 RMK AO2 SLP096 T01890044 53005
KTCS 250153Z AUTO 24007KT 10SM CLR 21/04 A2997 RMK AO2 SLP089 T02110039
KTCS 250053Z AUTO 23008KT 10SM CLR 22/04 A2997 RMK AO2 SLP094 T02170039
KTCS 242353Z AUTO 24009KT 10SM CLR 22/04 A2997 RMK AO2 SLP093 60000 T02220044 10233 20183 55004
KTCS 242253Z AUTO 28006KT 10SM FEW055 FEW070 SCT095 22/03 A2996 RMK AO2 WSHFT 2209 RAB2157E11B35E44 SLP089 P0000 T02220028
KTCS 242229Z AUTO 26011KT 10SM FEW047 BKN090 OVC100 21/04 A2998 RMK AO2 WSHFT 2209 RAB2157E11 P0000 T02110039
KTCS 242212Z AUTO 26015G20KT 10SM FEW055 BKN075 OVC100 21/04 A2998 RMK AO2 RAB2157E11 P0000 T02110039
KTCS 242153Z AUTO VRB03KT 10SM VCTS BKN080 22/02 A2998 RMK AO2 LTG DSNT N SLP094 T02170017
KTCS 242053Z AUTO 08008KT 10SM FEW070 23/03 A2998 RMK AO2 SLP095 T02280028 58016
KTCS 241953Z AUTO 03009G16KT 10SM FEW065 22/04 A3000 RMK AO2 SLP100 T02220044
KTCS 241853Z AUTO VRB04KT 10SM FEW060 21/06 A3002 RMK AO2 SLP109 T02060056
KTCS 241753Z AUTO 05005KT 10SM CLR 18/06 A3004 RMK AO2 SLP118 T01830056 10189 20072 58009
KTCS 241653Z AUTO 00000KT 10SM CLR 17/05 A3006 RMK AO2 SLP128 T01670050
KTCS 241553Z AUTO 00000KT 10SM CLR 15/05 A3007 RMK AO2 SLP134 T01500050
KTCS 241453Z AUTO VRB04KT 10SM CLR 13/05 A3007 RMK AO2 SLP137 T01330050 51009
KTCS 241353Z AUTO 34004KT 10SM CLR 11/05 A3007 RMK AO2 SLP134 T01110050
KTCS 241253Z AUTO 34004KT 10SM CLR 08/05 A3006 RMK AO2 SLP132 T00830050
KTCS 241153Z AUTO 00000KT 10SM CLR 08/06 A3004 RMK AO2 SLP126 70033 T00830061 10111 20078 53007
KTCS 241053Z AUTO 10003KT 10SM CLR 08/06 A3002 RMK AO2 SLP111 T00830061
KTCS 240953Z AUTO 30003KT 10SM CLR 09/07 A3001 RMK AO2 SLP107 T00890067
KTCS 240853Z AUTO 01004KT 10SM CLR 09/07 A3002 RMK AO2 SLP109 T00940067 58015
KTCS 240753Z AUTO 33005KT 10SM CLR 11/07 A3003 RMK AO2 SLP111 T01060072
KTCS 240653Z AUTO 28006KT 10SM FEW120 11/09 A3006 RMK AO2 SLP122 T01110089 402280094
KTCS 240553Z AUTO 12004KT 10SM CLR 11/08 A3007 RMK AO2 SLP126 60018 T01110083 10167 20106 58002
KTCS 240453Z AUTO 04008KT 10SM CLR 11/09 A3009 RMK AO2 SLP139 T01060089
KTCS 240353Z AUTO 02009KT 10SM FEW070 OVC100 12/08 A3009 RMK AO2 RAE28 SLP140 P0000 T01170078
KTCS 240253Z AUTO 36013G20KT 10SM -RA FEW042 OVC060 12/08 A3007 RMK AO2 LTG DSNT E RAB09 SLP136 P0000 60018 T01220083 53031
KTCS 240203Z AUTO 35008G17KT 10SM OVC075 15/07 A3003 RMK AO2 LTG DSNT E AND W PRESRR T01500067
KTCS 240153Z AUTO 01010G24KT 10SM VCTS OVC085 16/06 A3000 RMK AO2 LTG DSNT SE AND W PRESRR SLP107 T01560061
KTCS 240134Z AUTO 02010KT 10SM VCTS BKN095 BKN120 16/06 A2997 RMK AO2 LTG DSNT SE T01610061
KTCS 240053Z AUTO 04011G19KT 10SM FEW060 BKN075 OVC095 17/04 A2996 RMK AO2 LTG DSNT SE RAE53 TSB13E28 SLP095 P0018 T01670044
KTCS 240034Z AUTO 05014G18KT 8SM -RA SCT055 BKN070 OVC085 14/06 A2996 RMK AO2 TSB13E28 P0018 T01440061
KTCS 240019Z AUTO 06012G20KT 5SM TSRA BKN055 BKN070 OVC085 16/05 A2997 RMK AO2 TSB13 P0012 T01560050
KTCS 232353Z AUTO VRB06KT 4SM +RA BKN055 BKN070 OVC085 17/04 A2997 RMK AO2 WSHFT 2311 LTG DSNT N RAB16 SLP099 P0015 60015 T01670039 10228 20167 53002
KTCS 232331Z AUTO 26004G22KT 4SM +RA FEW060 OVC085 18/03 A2996 RMK AO2 WSHFT 2311 LTG DSNT N AND E RAB16 P0004 T01780033
KTCS 232253Z AUTO 00000KT 10SM CLR 21/M01 A2993 RMK AO2 RAB04E19 SLP078 P0000 T02111011
KTCS 232246Z AUTO 00000KT 10SM CLR 21/M02 A2993 RMK AO2 LTG DSNT NE RAB04E19 P0000 T02111017
KTCS 232231Z AUTO 25007KT 10SM VCTS SCT110 22/M02 A2993 RMK AO2 LTG DSNT E AND W RAB04E19 P0000 T02171017
KTCS 232153Z AUTO 15007KT 10SM BKN110 22/M02 A2994 RMK AO2 SLP079 T02171022
KTCS 232053Z AUTO 09007KT 060V120 10SM CLR 22/M01 A2996 RMK AO2 SLP087 T02171006 56024